| time (UTC) | temp C | wind direction | speed KPH | gust KPH | rain 1hr cm | rain 24hr cm | rain mn cm | humidity % | barometer mb |
| 20260510133504 | 15 | 185 | 4.8 | 9.7 | 0.00 | 0.00 | 0.00 | 99 | 1099.1 |
| 20260510133005 | 14 | 170 | 4.8 | 9.7 | 0.00 | 0.00 | 0.00 | 99 | 1099.1 |
| 20260510123505 | 11 | 210 | 0.0 | 3.2 | 0.00 | 0.00 | 0.00 | 98 | 1099.1 |
| 20260510123004 | 11 | 205 | 0.0 | 3.2 | 0.00 | 0.00 | 0.00 | 98 | 1099.1 |
| 20260510122505 | 11 | 195 | 1.6 | 3.2 | 0.00 | 0.00 | 0.00 | 98 | 1099.1 |
| 20260510121505 | 11 | 181 | 1.6 | 3.2 | 0.00 | 0.00 | 0.00 | 98 | 1099.1 |
| 20260510121004 | 11 | 0 | 0.0 | 0.0 | 0.00 | 0.00 | 0.00 | 99 | 1099.1 |
| 20260510120505 | 10 | 193 | 0.0 | 3.2 | 0.00 | 0.00 | 0.00 | 99 | 1099.1 |
| 20260510120004 | 10 | 187 | 0.0 | 3.2 | 0.00 | 0.00 | 0.00 | 99 | 1099.1 |
| 20260510115005 | 10 | 142 | 0.0 | 1.6 | 0.00 | 0.00 | 0.00 | 99 | 1099.1 |
| 20260510114005 | 10 | 161 | 0.0 | 3.2 | 0.00 | 0.00 | 0.00 | 99 | 1099.1 |
| 20260510113505 | 10 | 163 | 0.0 | 4.8 | 0.00 | 0.00 | 0.00 | 99 | 1099.1 |
| 20260510113005 | 10 | 172 | 0.0 | 4.8 | 0.00 | 0.00 | 0.00 | 99 | 1099.1 |
| 20260510112505 | 10 | 186 | 0.0 | 4.8 | 0.00 | 0.00 | 0.00 | 99 | 1099.1 |
| 20260510112005 | 10 | 195 | 3.2 | 4.8 | 0.00 | 0.00 | 0.00 | 99 | 1099.1 |
| 20260510111504 | 10 | 195 | 1.6 | 4.8 | 0.00 | 0.00 | 0.00 | 99 | 1099.1 |
| 20260510111005 | 10 | 181 | 1.6 | 3.2 | 0.00 | 0.00 | 0.00 | 99 | 1099.1 |
| 20260510110006 | 10 | 0 | 0.0 | 0.0 | 0.00 | 0.00 | 0.00 | 99 | 1099.1 |
| 20260510105505 | 10 | 0 | 0.0 | 0.0 | 0.00 | 0.00 | 0.00 | 99 | 1099.1 |
| 20260510104507 | 10 | 0 | 0.0 | 0.0 | 0.00 | 0.00 | 0.00 | 99 | 1099.1 |
| 20260510104005 | 10 | 181 | 0.0 | 1.6 | 0.00 | 0.00 | 0.00 | 99 | 1099.1 |
| 20260510103505 | 10 | 181 | 0.0 | 1.6 | 0.00 | 0.00 | 0.00 | 99 | 1099.1 |
| 20260510103006 | 10 | 0 | 0.0 | 0.0 | 0.00 | 0.00 | 0.00 | 99 | 1099.1 |